Time;durP1;ratioP1;P1;durP2;ratioP2;P2;SDS_P1;SDS_P2;PMS_P1;PMS_P2;Temp;Humidity;BMP_temperature;BMP_pressure;BME280_temperature;BME280_humidity;BME280_pressure;Samples;Min_cycle;Max_cycle;Signal;HPM_P1;HPM_P2
2023/04/18 00:01:09;;;;;;;11.07;5.45;;;;;;;;;;4947999;28;94900;-81
2023/04/18 00:03:37;;;;;;;10.88;5.47;;;;;;;;;;4948300;28;92901;-81
2023/04/18 00:06:04;;;;;;;10.27;5.47;;;;;;;;;;4951499;28;92826;-81
2023/04/18 00:08:32;;;;;;;12.90;5.22;;;;;;;;;;4929137;28;95048;-81
2023/04/18 00:10:58;;;;;;;11.02;5.53;;;;;;;;;;4948298;28;97553;-81
2023/04/18 00:13:27;;;;;;;9.82;5.25;;;;;;;;;;4948580;28;92955;-81
2023/04/18 00:15:53;;;;;;;9.90;5.13;;;;;;;;;;4948773;28;92857;-80
2023/04/18 00:18:20;;;;;;;11.63;5.07;;;;;;;;;;4947798;28;93029;-80
2023/04/18 00:20:47;;;;;;;12.40;5.38;;;;;;;;;;4931187;28;93449;-81
2023/04/18 00:23:14;;;;;;;10.90;5.28;;;;;;;;;;4946294;28;92703;-81
2023/04/18 00:25:40;;;;;;;13.27;5.57;;;;;;;;;;4948483;28;93638;-81
2023/04/18 00:28:07;;;;;;;11.75;5.40;;;;;;;;;;4949282;28;93381;-80
2023/04/18 00:30:33;;;;;;;9.90;4.72;;;;;;;;;;4948776;28;92860;-81
2023/04/18 00:33:03;;;;;;;11.35;5.38;;;;;;;;;;4946348;28;95481;-82
2023/04/18 00:35:30;;;;;;;11.25;5.03;;;;;;;;;;4949210;28;92792;-84
2023/04/18 00:37:57;;;;;;;12.32;5.63;;;;;;;;;;4948935;28;92820;-84
2023/04/18 00:40:25;;;;;;;10.88;5.50;;;;;;;;;;4946170;28;93987;-84
2023/04/18 00:42:51;;;;;;;11.07;5.43;;;;;;;;;;4949297;28;92869;-85
2023/04/18 00:45:18;;;;;;;10.15;5.20;;;;;;;;;;4949592;28;93077;-84
2023/04/18 00:47:44;;;;;;;10.82;5.45;;;;;;;;;;4945210;28;95918;-84
2023/04/18 00:50:12;;;;;;;9.65;5.28;;;;;;;;;;4943024;28;91829;-84
2023/04/18 00:52:40;;;;;;;11.23;4.95;;;;;;;;;;4946463;28;94478;-84
2023/04/18 00:55:07;;;;;;;;;;;;;;;;;;4949893;28;93118;-85
2023/04/18 00:57:33;;;;;;;10.80;5.30;;;;;;;;;;4949831;28;95111;-84
2023/04/18 01:00:07;;;;;;;9.15;5.03;;;;;;;;;;4948380;28;95862;-83
2023/04/18 01:02:34;;;;;;;10.02;4.82;;;;;;;;;;4950370;28;93038;-83
2023/04/18 01:05:02;;;;;;;9.60;4.90;;;;;;;;;;4964128;28;95486;-83
2023/04/18 01:07:29;;;;;;;;;;;;;;;;;;4954229;28;93701;-83
2023/04/18 01:09:56;;;;;;;9.02;5.05;;;;;;;;;;4953211;28;93183;-83
2023/04/18 01:12:22;;;;;;;9.73;4.90;;;;;;;;;;4949984;28;93050;-84
2023/04/18 01:14:49;;;;;;;8.68;4.70;;;;;;;;;;4950833;28;91744;-83
2023/04/18 01:17:16;;;;;;;9.65;4.70;;;;;;;;;;4952212;28;93144;-83
2023/04/18 01:19:43;;;;;;;10.23;5.10;;;;;;;;;;4931637;28;96049;-83
2023/04/18 01:22:12;;;;;;;10.35;4.75;;;;;;;;;;4949486;28;95284;-84
2023/04/18 01:24:39;;;;;;;9.38;5.10;;;;;;;;;;4948820;28;95067;-82
2023/04/18 01:27:10;;;;;;;12.50;5.47;;;;;;;;;;4951260;28;94456;-82
2023/04/18 01:29:37;;;;;;;14.30;5.53;;;;;;;;;;4946927;28;92920;-82
2023/04/18 01:32:04;;;;;;;10.60;4.85;;;;;;;;;;4944045;28;94247;-83
2023/04/18 01:34:31;;;;;;;10.15;5.00;;;;;;;;;;4937702;28;93822;-83
2023/04/18 01:36:58;;;;;;;9.95;5.15;;;;;;;;;;4936961;28;94286;-83
2023/04/18 01:39:24;;;;;;;9.95;5.22;;;;;;;;;;4954059;28;94333;-82
2023/04/18 01:41:51;;;;;;;9.15;4.70;;;;;;;;;;4942011;28;93117;-83
2023/04/18 01:44:17;;;;;;;9.65;4.90;;;;;;;;;;4930844;28;93034;-82
2023/04/18 01:46:44;;;;;;;10.02;4.63;;;;;;;;;;4947187;28;97954;-82
2023/04/18 01:49:11;;;;;;;11.13;5.22;;;;;;;;;;4951366;28;92095;-82
2023/04/18 01:51:40;;;;;;;8.60;4.55;;;;;;;;;;4966091;28;93821;-83
2023/04/18 01:54:07;;;;;;;;;;;;;;;;;;4955310;28;92448;-81
2023/04/18 01:56:33;;;;;;;11.93;5.07;;;;;;;;;;4954381;28;109287;-82
2023/04/18 01:59:00;;;;;;;10.85;5.05;;;;;;;;;;4963951;28;98817;-83
2023/04/18 02:01:27;;;;;;;8.73;4.63;;;;;;;;;;4932519;28;92558;-83
2023/04/18 02:03:53;;;;;;;8.82;4.75;;;;;;;;;;4944398;28;92846;-82
2023/04/18 02:06:20;;;;;;;9.13;4.82;;;;;;;;;;4958345;28;94490;-83
2023/04/18 02:08:47;;;;;;;10.10;4.78;;;;;;;;;;4927360;28;92603;-83
2023/04/18 02:11:13;;;;;;;9.65;5.00;;;;;;;;;;4924759;28;95648;-83
2023/04/18 02:13:40;;;;;;;11.32;5.03;;;;;;;;;;4927685;28;93309;-83
2023/04/18 02:16:10;;;;;;;10.13;5.38;;;;;;;;;;4931261;28;92485;-82
2023/04/18 02:18:38;;;;;;;10.32;5.03;;;;;;;;;;4942526;28;92945;-83
2023/04/18 02:21:06;;;;;;;9.20;5.03;;;;;;;;;;4928281;28;92524;-85
2023/04/18 02:23:32;;;;;;;10.75;5.25;;;;;;;;;;4922252;28;94449;-83
2023/04/18 02:25:59;;;;;;;11.38;4.90;;;;;;;;;;4924781;28;93323;-83
2023/04/18 02:28:25;;;;;;;9.20;4.65;;;;;;;;;;4930591;28;91963;-83
2023/04/18 02:30:52;;;;;;;;;;;;;;;;;;4937174;28;94803;-83
2023/04/18 02:33:19;;;;;;;10.13;4.50;;;;;;;;;;4932554;28;92585;-83
2023/04/18 02:35:46;;;;;;;9.52;4.85;;;;;;;;;;4930270;28;95117;-84
2023/04/18 02:38:14;;;;;;;9.80;4.65;;;;;;;;;;4937220;28;95295;-83
2023/04/18 02:40:41;;;;;;;8.68;4.72;;;;;;;;;;4933306;28;92761;-83
2023/04/18 02:43:07;;;;;;;10.40;5.00;;;;;;;;;;4949646;28;93884;-83
2023/04/18 02:45:34;;;;;;;9.75;4.63;;;;;;;;;;4932951;28;95523;-83
2023/04/18 02:48:01;;;;;;;10.02;4.63;;;;;;;;;;4950000;28;92645;-83
2023/04/18 02:50:28;;;;;;;9.88;4.47;;;;;;;;;;4933132;28;95545;-82
2023/04/18 02:52:56;;;;;;;9.27;4.60;;;;;;;;;;4951138;28;94609;-82
2023/04/18 02:55:29;;;;;;;10.00;4.80;;;;;;;;;;4949297;28;92607;-82
2023/04/18 02:57:58;;;;;;;9.23;4.80;;;;;;;;;;4957551;28;94106;-83
2023/04/18 03:00:24;;;;;;;8.77;4.47;;;;;;;;;;4955094;28;94952;-83
2023/04/18 03:02:54;;;;;;;11.80;4.68;;;;;;;;;;4957377;28;95659;-82
2023/04/18 03:05:38;;;;;;;8.32;4.57;;;;;;;;;;4967644;28;95086;-82
2023/04/18 03:08:05;;;;;;;8.93;4.68;;;;;;;;;;4957984;28;92553;-83
2023/04/18 03:10:33;;;;;;;10.00;4.55;;;;;;;;;;4938429;28;99519;-83
2023/04/18 03:13:00;;;;;;;8.80;4.53;;;;;;;;;;4951789;28;95609;-83
2023/04/18 03:15:29;;;;;;;8.63;4.30;;;;;;;;;;4933482;28;93675;-84
2023/04/18 03:17:56;;;;;;;11.38;4.57;;;;;;;;;;4914164;28;95290;-83
2023/04/18 03:20:25;;;;;;;8.98;4.60;;;;;;;;;;4925938;28;94780;-83
2023/04/18 03:22:51;;;;;;;12.10;4.75;;;;;;;;;;4949202;28;94039;-83
2023/04/18 03:25:22;;;;;;;8.00;4.50;;;;;;;;;;4930926;28;98233;-83
2023/04/18 03:27:51;;;;;;;9.02;5.03;;;;;;;;;;4948251;28;92845;-83
2023/04/18 03:30:19;;;;;;;9.25;4.82;;;;;;;;;;4931605;28;94999;-85
2023/04/18 03:32:52;;;;;;;9.82;4.40;;;;;;;;;;4948158;28;94432;-84
2023/04/18 03:35:19;;;;;;;9.93;5.07;;;;;;;;;;4949534;28;92795;-83
2023/04/18 03:37:46;;;;;;;8.75;4.30;;;;;;;;;;4940862;28;95389;-83
2023/04/18 03:40:20;;;;;;;9.95;4.85;;;;;;;;;;4946310;28;95560;-83
2023/04/18 03:42:49;;;;;;;10.98;4.43;;;;;;;;;;4934673;28;91984;-84
2023/04/18 03:45:15;;;;;;;10.23;4.70;;;;;;;;;;4949386;28;92700;-84
2023/04/18 03:47:44;;;;;;;9.52;4.60;;;;;;;;;;4947988;28;92520;-83
2023/04/18 03:50:11;;;;;;;9.07;5.00;;;;;;;;;;4947073;28;95256;-82
2023/04/18 03:52:39;;;;;;;12.15;4.82;;;;;;;;;;4956014;28;94527;-84
2023/04/18 03:55:06;;;;;;;11.45;4.82;;;;;;;;;;4947671;28;92598;-84
2023/04/18 03:57:33;;;;;;;10.20;4.55;;;;;;;;;;4950253;28;95726;-84
2023/04/18 04:00:03;;;;;;;8.57;4.60;;;;;;;;;;4955474;28;95033;-84
2023/04/18 04:02:40;;;;;;;9.63;5.00;;;;;;;;;;4948991;28;93730;-84
2023/04/18 04:05:10;;;;;;;8.95;4.57;;;;;;;;;;4949938;28;95513;-84
2023/04/18 04:07:37;;;;;;;9.65;5.07;;;;;;;;;;4947788;28;92107;-83
2023/04/18 04:10:04;;;;;;;10.57;4.80;;;;;;;;;;4930288;28;94236;-84
2023/04/18 04:12:31;;;;;;;8.90;4.72;;;;;;;;;;4956230;28;100056;-83
2023/04/18 04:14:57;;;;;;;8.63;4.55;;;;;;;;;;4945505;28;94937;-83
2023/04/18 04:17:24;;;;;;;9.45;4.72;;;;;;;;;;4930639;28;96459;-83
2023/04/18 04:19:51;;;;;;;9.80;5.00;;;;;;;;;;4947432;28;94934;-83
2023/04/18 04:22:19;;;;;;;9.30;4.75;;;;;;;;;;4916396;28;92879;-83
2023/04/18 04:24:46;;;;;;;8.18;4.68;;;;;;;;;;4932576;28;94791;-83
2023/04/18 04:27:17;;;;;;;8.88;4.95;;;;;;;;;;4951933;28;95120;-82
2023/04/18 04:29:44;;;;;;;9.63;4.95;;;;;;;;;;4937360;28;93832;-82
2023/04/18 04:32:12;;;;;;;11.80;5.20;;;;;;;;;;4938758;28;93708;-82
2023/04/18 04:34:40;;;;;;;10.27;5.38;;;;;;;;;;4939526;28;92852;-82
2023/04/18 04:37:09;;;;;;;10.60;5.25;;;;;;;;;;4929960;28;94016;-83
2023/04/18 04:39:46;;;;;;;10.13;5.20;;;;;;;;;;4928233;28;97934;-82
2023/04/18 04:42:29;;;;;;;9.45;5.30;;;;;;;;;;4922790;28;92629;-82
2023/04/18 04:45:03;;;;;;;9.05;4.90;;;;;;;;;;4924143;28;93140;-82
2023/04/18 04:47:30;;;;;;;10.63;4.85;;;;;;;;;;4925286;28;96037;-82
2023/04/18 04:49:57;;;;;;;9.15;4.95;;;;;;;;;;4931116;28;92715;-84
2023/04/18 04:52:23;;;;;;;9.85;5.38;;;;;;;;;;4911940;28;94843;-83
2023/04/18 04:54:50;;;;;;;9.32;5.32;;;;;;;;;;4923620;28;92835;-83
2023/04/18 04:57:18;;;;;;;11.13;5.63;;;;;;;;;;4892146;28;95707;-83
2023/04/18 04:59:45;;;;;;;10.27;5.38;;;;;;;;;;4924009;28;95568;-83
2023/04/18 05:02:12;;;;;;;10.63;5.60;;;;;;;;;;4911315;28;93061;-83
2023/04/18 05:04:39;;;;;;;14.73;5.32;;;;;;;;;;4906004;28;95140;-84
2023/04/18 05:07:06;;;;;;;11.70;5.15;;;;;;;;;;4908946;28;93103;-84
2023/04/18 05:09:32;;;;;;;18.67;5.97;;;;;;;;;;4921052;28;92440;-83
2023/04/18 05:12:00;;;;;;;11.55;5.28;;;;;;;;;;4908746;28;92952;-83
2023/04/18 05:14:26;;;;;;;16.75;5.82;;;;;;;;;;4907937;28;93028;-82
2023/04/18 05:16:54;;;;;;;12.10;5.63;;;;;;;;;;4909596;28;93166;-82
2023/04/18 05:19:21;;;;;;;15.70;5.80;;;;;;;;;;4909082;28;94474;-84
2023/04/18 05:21:48;;;;;;;12.90;5.53;;;;;;;;;;4924258;28;91896;-85
2023/04/18 05:24:14;;;;;;;25.10;5.45;;;;;;;;;;4907868;28;93043;-82
2023/04/18 05:26:41;;;;;;;11.80;5.65;;;;;;;;;;4907141;28;94626;-81
2023/04/18 05:29:08;;;;;;;12.07;5.80;;;;;;;;;;4910931;28;94870;-82
2023/04/18 05:31:35;;;;;;;14.23;5.70;;;;;;;;;;4912192;28;95328;-83
2023/04/18 05:34:02;;;;;;;10.05;5.20;;;;;;;;;;4908466;28;93070;-82
2023/04/18 05:36:28;;;;;;;15.07;5.70;;;;;;;;;;4905225;28;92478;-82
2023/04/18 05:38:55;;;;;;;11.90;5.22;;;;;;;;;;4902296;28;92855;-82
2023/04/18 05:41:21;;;;;;;15.15;5.47;;;;;;;;;;4921197;28;92541;-82
2023/04/18 05:43:48;;;;;;;10.60;5.55;;;;;;;;;;4947134;28;93742;-82
2023/04/18 05:46:30;;;;;;;11.20;4.97;;;;;;;;;;4946681;28;94673;-82
2023/04/18 05:48:57;;;;;;;10.70;5.50;;;;;;;;;;4945524;28;92591;-84
2023/04/18 05:51:23;;;;;;;9.65;5.20;;;;;;;;;;4953300;28;92816;-83
2023/04/18 05:53:50;;;;;;;13.45;5.45;;;;;;;;;;4948163;28;95481;-83
2023/04/18 05:56:16;;;;;;;10.35;5.30;;;;;;;;;;4946855;28;95274;-83
2023/04/18 05:58:45;;;;;;;10.27;5.25;;;;;;;;;;4946959;28;93173;-84
2023/04/18 06:01:17;;;;;;;10.98;5.18;;;;;;;;;;4948897;28;92612;-82
2023/04/18 06:03:44;;;;;;;11.27;5.65;;;;;;;;;;4951317;28;93092;-82
2023/04/18 06:06:10;;;;;;;10.95;5.65;;;;;;;;;;4949368;28;93513;-82
2023/04/18 06:08:37;;;;;;;9.30;5.03;;;;;;;;;;4950282;28;92872;-82
2023/04/18 06:11:04;;;;;;;10.15;5.20;;;;;;;;;;4951594;28;92887;-83
2023/04/18 06:13:31;;;;;;;10.30;5.38;;;;;;;;;;4950736;28;93404;-82
2023/04/18 06:15:59;;;;;;;10.57;5.65;;;;;;;;;;4954373;28;92402;-82
2023/04/18 06:18:25;;;;;;;10.27;5.53;;;;;;;;;;4951993;28;95716;-83
2023/04/18 06:20:52;;;;;;;11.13;5.50;;;;;;;;;;4951026;28;92874;-83
2023/04/18 06:23:18;;;;;;;9.88;5.35;;;;;;;;;;4950464;28;93116;-82
2023/04/18 06:25:45;;;;;;;10.38;5.25;;;;;;;;;;4949632;28;93289;-81
2023/04/18 06:28:11;;;;;;;9.75;5.50;;;;;;;;;;4931921;28;93154;-80
2023/04/18 06:30:38;;;;;;;8.98;5.18;;;;;;;;;;4936586;28;95743;-79
2023/04/18 06:33:04;;;;;;;9.95;4.93;;;;;;;;;;4949229;28;93296;-80
2023/04/18 06:35:31;;;;;;;8.88;4.95;;;;;;;;;;4940174;28;92170;-81
2023/04/18 06:37:57;;;;;;;11.30;5.60;;;;;;;;;;4952032;28;92766;-80
2023/04/18 06:40:24;;;;;;;10.02;4.80;;;;;;;;;;4946927;28;92713;-81
2023/04/18 06:42:50;;;;;;;9.10;4.80;;;;;;;;;;4947626;28;95191;-81
2023/04/18 06:45:17;;;;;;;21.27;5.43;;;;;;;;;;4949344;28;93321;-82
2023/04/18 06:47:44;;;;;;;12.07;4.85;;;;;;;;;;4931982;28;92586;-81
2023/04/18 06:50:10;;;;;;;9.45;4.82;;;;;;;;;;4948476;28;93070;-80
2023/04/18 06:52:39;;;;;;;20.98;4.68;;;;;;;;;;4951358;28;93452;-84
2023/04/18 06:55:06;;;;;;;11.77;4.00;;;;;;;;;;4953096;28;92415;-84
2023/04/18 06:57:33;;;;;;;19.48;4.68;;;;;;;;;;4950002;28;94726;-83
2023/04/18 06:59:59;;;;;;;11.80;4.13;;;;;;;;;;4955634;28;92584;-83
2023/04/18 07:02:26;;;;;;;10.13;3.75;;;;;;;;;;4952571;28;93085;-82
2023/04/18 07:04:52;;;;;;;9.20;4.00;;;;;;;;;;4949019;28;93067;-81
2023/04/18 07:07:19;;;;;;;7.60;3.45;;;;;;;;;;4944386;28;95295;-81
2023/04/18 07:09:45;;;;;;;8.88;4.05;;;;;;;;;;4932163;28;96174;-81
2023/04/18 07:12:12;;;;;;;7.45;3.60;;;;;;;;;;4947312;28;94489;-82
2023/04/18 07:14:39;;;;;;;7.45;3.63;;;;;;;;;;4931765;28;93057;-82
2023/04/18 07:17:06;;;;;;;7.68;3.53;;;;;;;;;;4950641;28;94435;-82
2023/04/18 07:19:33;;;;;;;7.57;3.70;;;;;;;;;;4936143;28;93406;-83
2023/04/18 07:21:59;;;;;;;6.93;3.58;;;;;;;;;;4960710;28;92879;-83
2023/04/18 07:24:26;;;;;;;8.05;3.50;;;;;;;;;;4952716;28;98323;-83
2023/04/18 07:26:52;;;;;;;6.38;3.30;;;;;;;;;;4952545;28;93084;-81
2023/04/18 07:29:20;;;;;;;7.65;3.40;;;;;;;;;;4949647;28;93176;-82
2023/04/18 07:31:47;;;;;;;7.70;3.30;;;;;;;;;;4947178;28;95507;-82
2023/04/18 07:34:14;;;;;;;9.00;3.40;;;;;;;;;;4946664;28;92538;-82
2023/04/18 07:36:41;;;;;;;6.75;3.33;;;;;;;;;;4944704;28;92942;-79
2023/04/18 07:39:10;;;;;;;6.72;3.38;;;;;;;;;;4945524;28;93637;-76
2023/04/18 07:41:37;;;;;;;9.93;3.10;;;;;;;;;;4950045;28;92847;-76
2023/04/18 07:44:03;;;;;;;13.93;3.47;;;;;;;;;;4947643;28;93039;-76
2023/04/18 07:46:31;;;;;;;5.97;2.83;;;;;;;;;;4945756;28;92761;-77
2023/04/18 07:48:58;;;;;;;6.50;3.00;;;;;;;;;;4946659;28;94058;-76
2023/04/18 07:51:30;;;;;;;7.55;3.13;;;;;;;;;;4946338;28;94013;-77
2023/04/18 07:53:57;;;;;;;5.90;2.90;;;;;;;;;;4947265;28;92937;-77
2023/04/18 07:56:24;;;;;;;5.75;2.78;;;;;;;;;;4944909;28;96270;-76
2023/04/18 07:58:51;;;;;;;5.93;2.70;;;;;;;;;;4946120;28;93801;-77
2023/04/18 08:01:19;;;;;;;6.20;2.85;;;;;;;;;;4947994;28;92728;-77
2023/04/18 08:03:49;;;;;;;6.57;2.90;;;;;;;;;;4949299;28;92909;-77
2023/04/18 08:06:16;;;;;;;6.22;2.65;;;;;;;;;;4945792;28;92554;-77
2023/04/18 08:08:43;;;;;;;6.22;2.80;;;;;;;;;;4947110;28;92988;-77
2023/04/18 08:11:09;;;;;;;5.30;2.60;;;;;;;;;;4929105;28;94759;-76
2023/04/18 08:13:36;;;;;;;5.13;2.65;;;;;;;;;;4948643;28;92018;-76
2023/04/18 08:16:02;;;;;;;5.28;2.55;;;;;;;;;;4929536;28;93016;-76
2023/04/18 08:18:29;;;;;;;5.97;2.70;;;;;;;;;;4947140;28;93520;-77
2023/04/18 08:20:55;;;;;;;5.03;2.42;;;;;;;;;;4947129;28;95298;-77
2023/04/18 08:23:22;;;;;;;4.68;2.33;;;;;;;;;;4947971;28;95174;-77
2023/04/18 08:25:49;;;;;;;6.07;2.50;;;;;;;;;;4954310;28;93818;-77
2023/04/18 08:28:16;;;;;;;5.15;2.30;;;;;;;;;;4955178;28;92741;-78
2023/04/18 08:30:42;;;;;;;5.05;2.17;;;;;;;;;;4954980;28;93036;-77
2023/04/18 08:33:09;;;;;;;4.30;2.20;;;;;;;;;;4950384;28;92507;-77
2023/04/18 08:35:36;;;;;;;4.75;2.30;;;;;;;;;;4953114;28;94375;-78
2023/04/18 08:38:02;;;;;;;4.13;2.28;;;;;;;;;;4952936;28;92000;-78
2023/04/18 08:40:29;;;;;;;5.18;2.10;;;;;;;;;;4951463;28;93219;-77
2023/04/18 08:42:56;;;;;;;5.13;2.15;;;;;;;;;;4949518;28;93085;-78
2023/04/18 08:45:23;;;;;;;5.03;2.10;;;;;;;;;;4946646;28;95623;-78
2023/04/18 08:47:50;;;;;;;4.38;2.08;;;;;;;;;;4934686;28;92567;-78
2023/04/18 08:50:17;;;;;;;;;;;;;;;;;;4947475;28;93715;-78
2023/04/18 08:52:46;;;;;;;4.65;2.17;;;;;;;;;;4949254;28;92853;-78
2023/04/18 08:55:14;;;;;;;4.05;2.10;;;;;;;;;;4946941;28;93909;-78
2023/04/18 08:57:41;;;;;;;4.55;2.30;;;;;;;;;;4931790;28;100145;-78
2023/04/18 09:00:09;;;;;;;3.47;1.90;;;;;;;;;;4950176;28;92534;-78
2023/04/18 09:02:45;;;;;;;3.35;1.85;;;;;;;;;;4951511;28;92167;-78
2023/04/18 09:05:20;;;;;;;4.22;2.10;;;;;;;;;;4952711;28;92916;-78
2023/04/18 09:07:47;;;;;;;3.25;1.90;;;;;;;;;;4958622;28;92463;-77
2023/04/18 09:10:14;;;;;;;;;;;;;;;;;;4963036;28;94827;-77
2023/04/18 09:12:48;;;;;;;4.65;2.20;;;;;;;;;;4970780;28;97912;-77
2023/04/18 09:15:16;;;;;;;3.58;1.70;;;;;;;;;;4971573;28;92835;-77
2023/04/18 09:17:50;;;;;;;4.35;2.30;;;;;;;;;;4970692;28;92093;-77
2023/04/18 09:20:25;;;;;;;3.70;1.90;;;;;;;;;;4970190;28;92212;-77
2023/04/18 09:22:56;;;;;;;4.47;1.90;;;;;;;;;;4957871;28;92526;-78
2023/04/18 09:25:26;;;;;;;4.38;2.05;;;;;;;;;;4946728;28;93550;-78
2023/04/18 09:27:52;;;;;;;3.47;1.83;;;;;;;;;;4933199;28;92046;-77
2023/04/18 09:30:29;;;;;;;4.03;1.88;;;;;;;;;;4951514;28;94081;-77
2023/04/18 09:32:56;;;;;;;3.50;1.85;;;;;;;;;;4949022;28;92530;-77
2023/04/18 09:35:24;;;;;;;4.75;1.98;;;;;;;;;;4944457;28;95493;-78
2023/04/18 09:37:50;;;;;;;3.42;1.90;;;;;;;;;;4946218;28;93030;-78
2023/04/18 09:40:18;;;;;;;4.10;1.90;;;;;;;;;;4945128;28;92571;-78
2023/04/18 09:42:44;;;;;;;;;;;;;;;;;;4945068;28;95837;-78
2023/04/18 09:45:12;;;;;;;3.95;1.95;;;;;;;;;;4946855;28;112943;-78
2023/04/18 09:47:38;;;;;;;3.25;1.70;;;;;;;;;;4946977;28;92936;-79
2023/04/18 09:50:06;;;;;;;4.57;2.00;;;;;;;;;;4946062;28;94313;-79
2023/04/18 09:52:34;;;;;;;4.40;1.80;;;;;;;;;;4948237;28;98405;-79
2023/04/18 09:55:02;;;;;;;5.72;1.90;;;;;;;;;;4946270;28;92469;-78
2023/04/18 09:57:29;;;;;;;5.97;2.60;;;;;;;;;;4946500;28;93313;-77
2023/04/18 10:00:23;;;;;;;11.32;4.90;;;;;;;;;;4945240;28;95293;-77
2023/04/18 10:02:51;;;;;;;10.27;4.50;;;;;;;;;;4934447;28;99722;-78
2023/04/18 10:05:19;;;;;;;12.45;5.22;;;;;;;;;;4945751;28;93261;-77
2023/04/18 10:07:48;;;;;;;13.50;6.40;;;;;;;;;;4945853;28;92542;-77
2023/04/18 10:10:14;;;;;;;16.23;6.70;;;;;;;;;;4944822;28;93071;-77
2023/04/18 10:12:41;;;;;;;16.50;7.38;;;;;;;;;;4944902;28;99561;-78
2023/04/18 10:15:09;;;;;;;19.60;8.20;;;;;;;;;;4948824;28;93516;-77
2023/04/18 10:17:43;;;;;;;20.83;9.65;;;;;;;;;;4945239;28;93678;-76
2023/04/18 10:20:29;;;;;;;20.20;9.65;;;;;;;;;;4945082;28;93064;-77
2023/04/18 10:22:56;;;;;;;20.80;9.55;;;;;;;;;;4945695;28;92875;-77
2023/04/18 10:25:37;;;;;;;17.83;9.27;;;;;;;;;;4944386;28;96458;-77
2023/04/18 10:28:05;;;;;;;18.48;8.40;;;;;;;;;;4946302;28;93310;-77
2023/04/18 10:30:52;;;;;;;17.30;8.70;;;;;;;;;;4944489;28;98539;-78
2023/04/18 10:33:25;;;;;;;16.05;7.65;;;;;;;;;;4924746;28;96457;-77
2023/04/18 10:35:57;;;;;;;16.25;6.88;;;;;;;;;;4943252;28;92703;-77
2023/04/18 10:38:24;;;;;;;14.68;7.25;;;;;;;;;;4930035;28;95243;-76
2023/04/18 10:40:50;;;;;;;14.75;7.35;;;;;;;;;;4946196;28;92868;-77
2023/04/18 10:43:17;;;;;;;13.93;6.90;;;;;;;;;;4946424;28;93237;-76
2023/04/18 10:45:43;;;;;;;13.23;6.03;;;;;;;;;;4945619;28;93747;-77
2023/04/18 10:48:28;;;;;;;15.63;6.57;;;;;;;;;;4947632;28;93000;-77
2023/04/18 10:51:15;;;;;;;12.98;5.97;;;;;;;;;;4947193;28;94937;-78
2023/04/18 10:53:51;;;;;;;12.80;5.88;;;;;;;;;;4949245;28;93372;-77
2023/04/18 10:56:18;;;;;;;12.73;5.65;;;;;;;;;;4948427;28;93050;-78
2023/04/18 10:58:49;;;;;;;12.18;5.28;;;;;;;;;;4947113;28;93589;-78
2023/04/18 11:01:21;;;;;;;11.65;5.07;;;;;;;;;;4933779;28;93002;-77
2023/04/18 11:03:47;;;;;;;9.52;4.35;;;;;;;;;;4948782;28;92750;-78
2023/04/18 11:06:14;;;;;;;10.52;4.78;;;;;;;;;;4929503;28;95575;-78
2023/04/18 11:08:41;;;;;;;10.73;4.53;;;;;;;;;;4948613;28;92343;-78
2023/04/18 11:11:10;;;;;;;9.88;4.28;;;;;;;;;;4947788;28;92644;-77
2023/04/18 11:13:36;;;;;;;10.90;4.60;;;;;;;;;;4948816;28;93151;-77
2023/04/18 11:16:03;;;;;;;10.38;4.18;;;;;;;;;;4929498;28;95177;-77
2023/04/18 11:18:40;;;;;;;9.63;4.55;;;;;;;;;;4946039;28;98439;-77
2023/04/18 11:21:06;;;;;;;10.77;4.45;;;;;;;;;;4948440;28;93759;-76
2023/04/18 11:23:33;;;;;;;9.88;4.15;;;;;;;;;;4951233;28;93218;-76
2023/04/18 11:25:59;;;;;;;9.60;3.85;;;;;;;;;;4947625;28;92959;-77
2023/04/18 11:28:27;;;;;;;9.07;3.95;;;;;;;;;;4947663;28;93568;-77
2023/04/18 11:30:56;;;;;;;10.95;4.00;;;;;;;;;;4948421;28;93184;-77
2023/04/18 11:33:26;;;;;;;19.63;4.38;;;;;;;;;;4948275;28;92607;-77
2023/04/18 11:35:55;;;;;;;9.07;3.67;;;;;;;;;;4945356;28;92437;-77
2023/04/18 11:38:26;;;;;;;8.93;3.53;;;;;;;;;;4941319;28;94046;-78
2023/04/18 11:40:53;;;;;;;11.07;4.10;;;;;;;;;;4946643;28;96387;-77
2023/04/18 11:43:20;;;;;;;9.23;3.78;;;;;;;;;;4928426;28;92913;-78
2023/04/18 11:45:55;;;;;;;13.13;4.10;;;;;;;;;;4943092;28;93143;-79
2023/04/18 11:48:22;;;;;;;10.98;4.07;;;;;;;;;;4947055;28;93324;-79
2023/04/18 11:50:48;;;;;;;10.35;3.78;;;;;;;;;;4948139;28;92988;-77
2023/04/18 11:53:30;;;;;;;9.98;3.55;;;;;;;;;;4944042;28;95885;-79
2023/04/18 11:55:56;;;;;;;9.60;3.72;;;;;;;;;;4947773;28;93173;-78
2023/04/18 11:58:28;;;;;;;10.32;3.50;;;;;;;;;;4945461;28;92989;-78
2023/04/18 12:00:55;;;;;;;9.35;3.40;;;;;;;;;;4944490;28;93016;-78
2023/04/18 12:03:23;;;;;;;9.30;3.80;;;;;;;;;;4946511;28;92963;-78
2023/04/18 12:05:57;;;;;;;9.05;3.78;;;;;;;;;;4947028;28;95233;-78
2023/04/18 12:08:24;;;;;;;9.02;3.70;;;;;;;;;;4932770;28;93847;-79
2023/04/18 12:10:51;;;;;;;9.23;3.60;;;;;;;;;;4945426;28;93873;-79
2023/04/18 12:13:18;;;;;;;9.07;3.42;;;;;;;;;;4939659;28;95351;-78
2023/04/18 12:15:45;;;;;;;8.85;3.63;;;;;;;;;;4945192;28;92889;-79
2023/04/18 12:18:12;;;;;;;8.52;3.35;;;;;;;;;;4947885;28;93131;-79
2023/04/18 12:20:48;;;;;;;7.93;3.20;;;;;;;;;;4946023;28;93573;-79
2023/04/18 12:23:33;;;;;;;10.32;3.72;;;;;;;;;;4924003;28;92073;-79
2023/04/18 12:26:03;;;;;;;8.40;3.55;;;;;;;;;;4947050;28;93546;-78
2023/04/18 12:28:30;;;;;;;7.97;3.42;;;;;;;;;;4949796;28;93560;-79
2023/04/18 12:30:57;;;;;;;9.00;3.50;;;;;;;;;;4946855;28;96222;-78
2023/04/18 12:33:25;;;;;;;9.60;3.60;;;;;;;;;;4946141;28;96478;-77
2023/04/18 12:35:51;;;;;;;8.63;3.15;;;;;;;;;;4946449;28;92918;-78
2023/04/18 12:38:19;;;;;;;9.30;3.53;;;;;;;;;;4940710;28;92797;-77
2023/04/18 12:40:46;;;;;;;9.15;3.40;;;;;;;;;;4942375;28;93183;-78
2023/04/18 12:43:12;;;;;;;8.05;3.47;;;;;;;;;;4947640;28;92514;-78
2023/04/18 12:45:39;;;;;;;7.88;3.53;;;;;;;;;;4947104;28;94208;-77
2023/04/18 12:48:05;;;;;;;9.38;3.38;;;;;;;;;;4948622;28;93052;-79
2023/04/18 12:50:32;;;;;;;8.18;3.30;;;;;;;;;;4950730;28;92858;-77
2023/04/18 12:52:59;;;;;;;9.70;3.10;;;;;;;;;;4948102;28;93904;-76
2023/04/18 12:55:26;;;;;;;7.88;3.40;;;;;;;;;;4947414;28;95215;-77
2023/04/18 12:57:53;;;;;;;10.45;3.50;;;;;;;;;;4948004;28;95141;-77
2023/04/18 13:00:22;;;;;;;7.78;3.47;;;;;;;;;;4947210;28;92982;-77
2023/04/18 13:02:49;;;;;;;8.55;3.30;;;;;;;;;;4946895;28;92597;-77
2023/04/18 13:05:16;;;;;;;6.97;3.00;;;;;;;;;;4947248;28;93078;-78
2023/04/18 13:07:43;;;;;;;8.68;3.00;;;;;;;;;;4946956;28;92921;-78
2023/04/18 13:10:13;;;;;;;7.43;3.17;;;;;;;;;;4928800;28;92699;-78
2023/04/18 13:12:39;;;;;;;6.57;2.88;;;;;;;;;;4950199;28;93513;-78
2023/04/18 13:15:07;;;;;;;8.48;3.65;;;;;;;;;;4946943;28;93021;-78
2023/04/18 13:17:35;;;;;;;7.22;3.22;;;;;;;;;;4945584;28;93986;-78
2023/04/18 13:20:05;;;;;;;7.15;3.10;;;;;;;;;;4944059;28;95679;-79
2023/04/18 13:22:32;;;;;;;6.82;2.97;;;;;;;;;;4945625;28;92812;-79
2023/04/18 13:24:59;;;;;;;8.63;3.55;;;;;;;;;;4927034;28;95547;-79
2023/04/18 13:27:25;;;;;;;8.02;3.38;;;;;;;;;;4945031;28;93061;-79
2023/04/18 13:29:52;;;;;;;7.10;3.00;;;;;;;;;;4944885;28;92878;-79
2023/04/18 13:32:18;;;;;;;6.82;3.13;;;;;;;;;;4947015;28;92946;-79
2023/04/18 13:34:46;;;;;;;7.50;2.90;;;;;;;;;;4941998;28;92969;-79
2023/04/18 13:37:12;;;;;;;8.38;3.42;;;;;;;;;;4944185;28;93731;-79
2023/04/18 13:39:39;;;;;;;7.32;3.15;;;;;;;;;;4950981;28;93320;-79
2023/04/18 13:42:06;;;;;;;6.75;3.22;;;;;;;;;;4945811;28;92796;-77
2023/04/18 13:44:34;;;;;;;7.80;3.13;;;;;;;;;;4944774;28;97405;-78
2023/04/18 13:47:01;;;;;;;6.93;3.03;;;;;;;;;;4944644;28;96328;-78
2023/04/18 13:49:28;;;;;;;7.40;3.40;;;;;;;;;;4946481;28;92577;-77
2023/04/18 13:51:57;;;;;;;6.75;3.03;;;;;;;;;;4945959;28;93415;-78
2023/04/18 13:54:25;;;;;;;8.90;3.30;;;;;;;;;;4948201;28;93061;-77
2023/04/18 13:57:01;;;;;;;6.50;3.08;;;;;;;;;;4946514;28;93271;-77
2023/04/18 13:59:30;;;;;;;7.38;3.17;;;;;;;;;;4946595;28;93085;-77
2023/04/18 14:01:56;;;;;;;8.13;3.10;;;;;;;;;;4946713;28;91873;-76
2023/04/18 14:04:23;;;;;;;7.97;3.40;;;;;;;;;;4945972;28;92855;-76
2023/04/18 14:06:50;;;;;;;7.97;3.40;;;;;;;;;;4928346;28;97704;-76
2023/04/18 14:09:16;;;;;;;8.02;3.80;;;;;;;;;;4944651;28;95029;-77
2023/04/18 14:11:43;;;;;;;7.95;3.58;;;;;;;;;;4946427;28;93943;-77
2023/04/18 14:14:10;;;;;;;8.02;3.92;;;;;;;;;;4945681;28;92954;-77
2023/04/18 14:16:36;;;;;;;8.20;4.10;;;;;;;;;;4949700;28;92600;-78
2023/04/18 14:19:03;;;;;;;7.72;3.40;;;;;;;;;;4946605;28;93393;-77
2023/04/18 14:21:30;;;;;;;7.30;3.47;;;;;;;;;;4946716;28;93215;-77
2023/04/18 14:23:56;;;;;;;7.80;3.38;;;;;;;;;;4949904;28;93226;-78
2023/04/18 14:26:23;;;;;;;7.35;3.40;;;;;;;;;;4949189;28;93411;-77
2023/04/18 14:28:50;;;;;;;7.97;3.88;;;;;;;;;;4949280;28;93200;-77
2023/04/18 14:31:16;;;;;;;8.48;3.95;;;;;;;;;;4949261;28;92833;-77
2023/04/18 14:33:43;;;;;;;7.88;3.67;;;;;;;;;;4947617;28;95507;-77
2023/04/18 14:36:10;;;;;;;6.50;3.15;;;;;;;;;;4948546;28;92803;-76
2023/04/18 14:38:36;;;;;;;6.50;3.00;;;;;;;;;;4952495;28;92908;-76
2023/04/18 14:41:03;;;;;;;7.28;3.17;;;;;;;;;;4947459;28;92609;-76
2023/04/18 14:43:29;;;;;;;6.97;3.00;;;;;;;;;;4949108;28;93632;-77
2023/04/18 14:45:56;;;;;;;7.45;3.72;;;;;;;;;;4949262;28;93160;-77